sensor_id;sensor_type;location;lat;lon;timestamp;P1;durP1;ratioP1;P2;durP2;ratioP2
62957;SDS011;49056;48.352;10.926;2024-02-21T00:02:21;1.27;;;0.70;;
62957;SDS011;49056;48.352;10.926;2024-02-21T00:07:42;1.23;;;0.62;;
62957;SDS011;49056;48.352;10.926;2024-02-21T00:13:02;1.25;;;0.68;;
62957;SDS011;49056;48.352;10.926;2024-02-21T00:18:23;1.10;;;0.60;;
62957;SDS011;49056;48.352;10.926;2024-02-21T00:23:44;0.73;;;0.53;;
62957;SDS011;49056;48.352;10.926;2024-02-21T00:29:05;1.15;;;0.70;;
62957;SDS011;49056;48.352;10.926;2024-02-21T00:34:26;1.27;;;0.65;;
62957;SDS011;49056;48.352;10.926;2024-02-21T00:39:46;0.75;;;0.52;;
62957;SDS011;49056;48.352;10.926;2024-02-21T00:45:07;2.33;;;0.80;;
62957;SDS011;49056;48.352;10.926;2024-02-21T00:50:28;0.70;;;0.30;;
62957;SDS011;49056;48.352;10.926;2024-02-21T00:55:48;1.30;;;0.80;;
62957;SDS011;49056;48.352;10.926;2024-02-21T01:01:08;2.53;;;0.70;;
62957;SDS011;49056;48.352;10.926;2024-02-21T01:06:29;0.93;;;0.68;;
62957;SDS011;49056;48.352;10.926;2024-02-21T01:11:49;1.55;;;0.73;;
62957;SDS011;49056;48.352;10.926;2024-02-21T01:17:09;0.87;;;0.57;;
62957;SDS011;49056;48.352;10.926;2024-02-21T01:22:29;0.55;;;0.50;;
62957;SDS011;49056;48.352;10.926;2024-02-21T01:27:50;0.50;;;0.40;;
62957;SDS011;49056;48.352;10.926;2024-02-21T01:33:11;0.47;;;0.43;;
62957;SDS011;49056;48.352;10.926;2024-02-21T01:38:31;1.10;;;0.98;;
62957;SDS011;49056;48.352;10.926;2024-02-21T01:43:52;0.62;;;0.45;;
62957;SDS011;49056;48.352;10.926;2024-02-21T01:49:12;1.67;;;0.70;;
62957;SDS011;49056;48.352;10.926;2024-02-21T01:54:32;0.95;;;0.60;;
62957;SDS011;49056;48.352;10.926;2024-02-21T01:59:53;0.97;;;0.70;;
62957;SDS011;49056;48.352;10.926;2024-02-21T02:05:13;1.83;;;0.70;;
62957;SDS011;49056;48.352;10.926;2024-02-21T02:10:33;0.68;;;0.60;;
62957;SDS011;49056;48.352;10.926;2024-02-21T02:15:54;1.75;;;0.77;;
62957;SDS011;49056;48.352;10.926;2024-02-21T02:21:21;1.20;;;0.47;;
62957;SDS011;49056;48.352;10.926;2024-02-21T02:26:43;0.43;;;0.30;;
62957;SDS011;49056;48.352;10.926;2024-02-21T02:32:03;0.95;;;0.50;;
62957;SDS011;49056;48.352;10.926;2024-02-21T02:37:23;1.12;;;0.70;;
62957;SDS011;49056;48.352;10.926;2024-02-21T02:42:44;1.23;;;0.70;;
62957;SDS011;49056;48.352;10.926;2024-02-21T02:48:04;0.52;;;0.30;;
62957;SDS011;49056;48.352;10.926;2024-02-21T02:53:24;0.98;;;0.50;;
62957;SDS011;49056;48.352;10.926;2024-02-21T02:58:45;1.87;;;0.47;;
62957;SDS011;49056;48.352;10.926;2024-02-21T03:04:06;0.85;;;0.52;;
62957;SDS011;49056;48.352;10.926;2024-02-21T03:09:26;1.60;;;0.52;;
62957;SDS011;49056;48.352;10.926;2024-02-21T03:14:46;0.80;;;0.60;;
62957;SDS011;49056;48.352;10.926;2024-02-21T03:20:07;1.27;;;0.40;;
62957;SDS011;49056;48.352;10.926;2024-02-21T03:25:29;0.75;;;0.40;;
62957;SDS011;49056;48.352;10.926;2024-02-21T03:30:50;0.53;;;0.40;;
62957;SDS011;49056;48.352;10.926;2024-02-21T03:36:13;1.35;;;0.65;;
62957;SDS011;49056;48.352;10.926;2024-02-21T03:41:34;1.15;;;0.60;;
62957;SDS011;49056;48.352;10.926;2024-02-21T03:46:55;0.55;;;0.43;;
62957;SDS011;49056;48.352;10.926;2024-02-21T03:52:15;0.70;;;0.50;;
62957;SDS011;49056;48.352;10.926;2024-02-21T03:57:36;0.57;;;0.40;;
62957;SDS011;49056;48.352;10.926;2024-02-21T04:02:57;0.60;;;0.52;;
62957;SDS011;49056;48.352;10.926;2024-02-21T04:08:17;1.23;;;0.62;;
62957;SDS011;49056;48.352;10.926;2024-02-21T04:13:37;0.98;;;0.60;;
62957;SDS011;49056;48.352;10.926;2024-02-21T04:18:58;1.13;;;0.30;;
62957;SDS011;49056;48.352;10.926;2024-02-21T04:24:18;1.02;;;0.50;;
62957;SDS011;49056;48.352;10.926;2024-02-21T04:29:38;1.75;;;0.88;;
62957;SDS011;49056;48.352;10.926;2024-02-21T04:34:58;1.10;;;0.47;;
62957;SDS011;49056;48.352;10.926;2024-02-21T04:40:19;3.13;;;0.43;;
62957;SDS011;49056;48.352;10.926;2024-02-21T04:45:39;1.17;;;0.50;;
62957;SDS011;49056;48.352;10.926;2024-02-21T04:50:59;1.12;;;0.75;;
62957;SDS011;49056;48.352;10.926;2024-02-21T04:56:20;0.73;;;0.30;;
62957;SDS011;49056;48.352;10.926;2024-02-21T05:01:40;0.77;;;0.60;;
62957;SDS011;49056;48.352;10.926;2024-02-21T05:07:00;1.15;;;0.40;;
62957;SDS011;49056;48.352;10.926;2024-02-21T05:12:21;0.73;;;0.30;;
62957;SDS011;49056;48.352;10.926;2024-02-21T05:17:41;0.50;;;0.40;;
62957;SDS011;49056;48.352;10.926;2024-02-21T05:23:03;1.92;;;0.73;;
62957;SDS011;49056;48.352;10.926;2024-02-21T05:28:23;0.65;;;0.50;;
62957;SDS011;49056;48.352;10.926;2024-02-21T05:33:44;1.12;;;0.20;;
62957;SDS011;49056;48.352;10.926;2024-02-21T05:39:04;0.55;;;0.22;;
62957;SDS011;49056;48.352;10.926;2024-02-21T05:44:24;0.20;;;0.20;;
62957;SDS011;49056;48.352;10.926;2024-02-21T05:49:46;0.60;;;0.32;;
62957;SDS011;49056;48.352;10.926;2024-02-21T05:55:07;0.30;;;0.20;;
62957;SDS011;49056;48.352;10.926;2024-02-21T06:00:28;0.65;;;0.30;;
62957;SDS011;49056;48.352;10.926;2024-02-21T06:05:48;0.43;;;0.27;;
62957;SDS011;49056;48.352;10.926;2024-02-21T06:11:08;0.80;;;0.40;;
62957;SDS011;49056;48.352;10.926;2024-02-21T06:16:29;0.37;;;0.17;;
62957;SDS011;49056;48.352;10.926;2024-02-21T06:21:49;0.65;;;0.37;;
62957;SDS011;49056;48.352;10.926;2024-02-21T06:27:10;0.68;;;0.35;;
62957;SDS011;49056;48.352;10.926;2024-02-21T06:32:31;0.30;;;0.20;;
62957;SDS011;49056;48.352;10.926;2024-02-21T06:37:51;0.75;;;0.40;;
62957;SDS011;49056;48.352;10.926;2024-02-21T06:43:12;0.50;;;0.40;;
62957;SDS011;49056;48.352;10.926;2024-02-21T06:48:32;0.10;;;0.10;;
62957;SDS011;49056;48.352;10.926;2024-02-21T06:53:53;0.50;;;0.30;;
62957;SDS011;49056;48.352;10.926;2024-02-21T06:59:13;0.30;;;0.17;;
62957;SDS011;49056;48.352;10.926;2024-02-21T07:04:35;0.90;;;0.30;;
62957;SDS011;49056;48.352;10.926;2024-02-21T07:09:56;0.40;;;0.20;;
62957;SDS011;49056;48.352;10.926;2024-02-21T07:15:16;0.68;;;0.30;;
62957;SDS011;49056;48.352;10.926;2024-02-21T07:20:36;0.35;;;0.20;;
62957;SDS011;49056;48.352;10.926;2024-02-21T07:25:57;0.20;;;0.10;;
62957;SDS011;49056;48.352;10.926;2024-02-21T07:31:18;1.10;;;0.40;;
62957;SDS011;49056;48.352;10.926;2024-02-21T07:36:38;1.40;;;0.47;;
62957;SDS011;49056;48.352;10.926;2024-02-21T07:41:58;0.52;;;0.30;;
62957;SDS011;49056;48.352;10.926;2024-02-21T07:47:19;0.60;;;0.40;;
62957;SDS011;49056;48.352;10.926;2024-02-21T07:52:40;0.20;;;0.20;;
62957;SDS011;49056;48.352;10.926;2024-02-21T07:58:00;0.63;;;0.20;;
62957;SDS011;49056;48.352;10.926;2024-02-21T08:03:20;0.55;;;0.30;;
62957;SDS011;49056;48.352;10.926;2024-02-21T08:08:41;1.00;;;0.40;;
62957;SDS011;49056;48.352;10.926;2024-02-21T08:14:01;0.52;;;0.28;;
62957;SDS011;49056;48.352;10.926;2024-02-21T08:19:23;0.10;;;0.10;;
62957;SDS011;49056;48.352;10.926;2024-02-21T08:24:43;0.43;;;0.20;;
62957;SDS011;49056;48.352;10.926;2024-02-21T08:30:04;0.85;;;0.35;;
62957;SDS011;49056;48.352;10.926;2024-02-21T08:35:24;0.17;;;0.13;;
62957;SDS011;49056;48.352;10.926;2024-02-21T08:40:44;1.27;;;0.40;;
62957;SDS011;49056;48.352;10.926;2024-02-21T08:46:05;0.47;;;0.30;;
62957;SDS011;49056;48.352;10.926;2024-02-21T08:51:25;0.50;;;0.40;;
62957;SDS011;49056;48.352;10.926;2024-02-21T08:56:46;0.22;;;0.10;;
62957;SDS011;49056;48.352;10.926;2024-02-21T09:02:07;0.40;;;0.20;;
62957;SDS011;49056;48.352;10.926;2024-02-21T09:07:29;0.20;;;0.10;;
62957;SDS011;49056;48.352;10.926;2024-02-21T09:12:49;0.20;;;0.10;;
62957;SDS011;49056;48.352;10.926;2024-02-21T09:18:09;0.40;;;0.40;;
62957;SDS011;49056;48.352;10.926;2024-02-21T09:23:30;0.23;;;0.13;;
62957;SDS011;49056;48.352;10.926;2024-02-21T09:28:51;0.45;;;0.10;;
62957;SDS011;49056;48.352;10.926;2024-02-21T09:34:12;1.30;;;0.32;;
62957;SDS011;49056;48.352;10.926;2024-02-21T09:39:32;0.15;;;0.15;;
62957;SDS011;49056;48.352;10.926;2024-02-21T09:44:52;0.57;;;0.25;;
62957;SDS011;49056;48.352;10.926;2024-02-21T09:50:13;1.08;;;0.50;;
62957;SDS011;49056;48.352;10.926;2024-02-21T09:55:34;1.08;;;0.68;;
62957;SDS011;49056;48.352;10.926;2024-02-21T10:00:55;0.30;;;0.30;;
62957;SDS011;49056;48.352;10.926;2024-02-21T10:06:17;0.20;;;0.20;;
62957;SDS011;49056;48.352;10.926;2024-02-21T10:11:37;0.25;;;0.22;;
62957;SDS011;49056;48.352;10.926;2024-02-21T10:16:58;0.30;;;0.10;;
62957;SDS011;49056;48.352;10.926;2024-02-21T10:22:19;0.30;;;0.20;;
62957;SDS011;49056;48.352;10.926;2024-02-21T10:27:41;0.28;;;0.20;;
62957;SDS011;49056;48.352;10.926;2024-02-21T10:33:01;0.10;;;0.10;;
62957;SDS011;49056;48.352;10.926;2024-02-21T10:38:22;0.45;;;0.20;;
62957;SDS011;49056;48.352;10.926;2024-02-21T10:43:42;0.50;;;0.20;;
62957;SDS011;49056;48.352;10.926;2024-02-21T10:49:18;0.10;;;0.10;;
62957;SDS011;49056;48.352;10.926;2024-02-21T10:54:47;0.52;;;0.15;;
62957;SDS011;49056;48.352;10.926;2024-02-21T11:00:08;1.35;;;0.32;;
62957;SDS011;49056;48.352;10.926;2024-02-21T11:05:32;0.08;;;0.08;;
62957;SDS011;49056;48.352;10.926;2024-02-21T11:10:57;0.73;;;0.20;;
62957;SDS011;49056;48.352;10.926;2024-02-21T11:16:23;0.17;;;0.08;;
62957;SDS011;49056;48.352;10.926;2024-02-21T11:21:43;0.57;;;0.20;;
62957;SDS011;49056;48.352;10.926;2024-02-21T11:27:08;0.33;;;0.10;;
62957;SDS011;49056;48.352;10.926;2024-02-21T11:32:29;0.73;;;0.28;;
62957;SDS011;49056;48.352;10.926;2024-02-21T11:37:50;0.65;;;0.20;;
62957;SDS011;49056;48.352;10.926;2024-02-21T11:43:11;0.20;;;0.20;;
62957;SDS011;49056;48.352;10.926;2024-02-21T11:48:31;0.32;;;0.17;;
62957;SDS011;49056;48.352;10.926;2024-02-21T11:53:55;0.40;;;0.20;;
62957;SDS011;49056;48.352;10.926;2024-02-21T11:59:15;0.20;;;0.20;;
62957;SDS011;49056;48.352;10.926;2024-02-21T12:04:35;0.10;;;0.10;;
62957;SDS011;49056;48.352;10.926;2024-02-21T12:09:58;0.17;;;0.08;;
62957;SDS011;49056;48.352;10.926;2024-02-21T12:15:18;0.32;;;0.20;;
62957;SDS011;49056;48.352;10.926;2024-02-21T12:20:39;0.55;;;0.20;;
62957;SDS011;49056;48.352;10.926;2024-02-21T12:26:00;0.22;;;0.08;;
62957;SDS011;49056;48.352;10.926;2024-02-21T12:31:21;0.17;;;0.15;;
62957;SDS011;49056;48.352;10.926;2024-02-21T12:36:42;0.20;;;0.10;;
62957;SDS011;49056;48.352;10.926;2024-02-21T12:42:03;0.30;;;0.20;;
62957;SDS011;49056;48.352;10.926;2024-02-21T12:47:23;0.43;;;0.20;;
62957;SDS011;49056;48.352;10.926;2024-02-21T12:52:44;0.00;;;0.00;;
62957;SDS011;49056;48.352;10.926;2024-02-21T12:58:05;0.37;;;0.10;;
62957;SDS011;49056;48.352;10.926;2024-02-21T13:03:27;0.30;;;0.30;;
62957;SDS011;49056;48.352;10.926;2024-02-21T13:08:47;0.20;;;0.17;;
62957;SDS011;49056;48.352;10.926;2024-02-21T13:14:07;0.10;;;0.03;;
62957;SDS011;49056;48.352;10.926;2024-02-21T13:19:28;0.10;;;0.07;;
62957;SDS011;49056;48.352;10.926;2024-02-21T13:24:48;0.20;;;0.13;;
62957;SDS011;49056;48.352;10.926;2024-02-21T13:30:08;0.50;;;0.20;;
62957;SDS011;49056;48.352;10.926;2024-02-21T13:35:30;0.10;;;0.10;;
62957;SDS011;49056;48.352;10.926;2024-02-21T13:40:50;0.28;;;0.20;;
62957;SDS011;49056;48.352;10.926;2024-02-21T13:46:11;0.22;;;0.10;;
62957;SDS011;49056;48.352;10.926;2024-02-21T13:51:31;0.28;;;0.10;;
62957;SDS011;49056;48.352;10.926;2024-02-21T13:56:52;0.17;;;0.10;;
62957;SDS011;49056;48.352;10.926;2024-02-21T14:02:12;0.10;;;0.10;;
62957;SDS011;49056;48.352;10.926;2024-02-21T14:07:33;0.30;;;0.17;;
62957;SDS011;49056;48.352;10.926;2024-02-21T14:12:53;0.37;;;0.10;;
62957;SDS011;49056;48.352;10.926;2024-02-21T14:18:15;0.20;;;0.10;;
62957;SDS011;49056;48.352;10.926;2024-02-21T14:23:39;0.40;;;0.22;;
62957;SDS011;49056;48.352;10.926;2024-02-21T14:28:59;0.10;;;0.00;;
62957;SDS011;49056;48.352;10.926;2024-02-21T14:34:19;0.20;;;0.20;;
62957;SDS011;49056;48.352;10.926;2024-02-21T14:39:40;0.33;;;0.20;;
62957;SDS011;49056;48.352;10.926;2024-02-21T14:45:00;0.68;;;0.32;;
62957;SDS011;49056;48.352;10.926;2024-02-21T14:50:24;0.43;;;0.17;;
62957;SDS011;49056;48.352;10.926;2024-02-21T14:55:44;0.20;;;0.10;;
62957;SDS011;49056;48.352;10.926;2024-02-21T15:01:04;0.10;;;0.08;;
62957;SDS011;49056;48.352;10.926;2024-02-21T15:06:24;0.35;;;0.20;;
62957;SDS011;49056;48.352;10.926;2024-02-21T15:11:45;0.77;;;0.10;;
62957;SDS011;49056;48.352;10.926;2024-02-21T15:17:05;0.10;;;0.10;;
62957;SDS011;49056;48.352;10.926;2024-02-21T15:22:25;0.00;;;0.00;;
62957;SDS011;49056;48.352;10.926;2024-02-21T15:27:46;0.10;;;0.10;;
62957;SDS011;49056;48.352;10.926;2024-02-21T15:33:06;0.20;;;0.10;;
62957;SDS011;49056;48.352;10.926;2024-02-21T15:38:26;0.20;;;0.10;;
62957;SDS011;49056;48.352;10.926;2024-02-21T15:43:48;0.10;;;0.05;;
62957;SDS011;49056;48.352;10.926;2024-02-21T15:49:09;0.22;;;0.00;;
62957;SDS011;49056;48.352;10.926;2024-02-21T15:54:29;0.25;;;0.05;;
62957;SDS011;49056;48.352;10.926;2024-02-21T15:59:50;0.70;;;0.20;;
62957;SDS011;49056;48.352;10.926;2024-02-21T16:05:14;0.15;;;0.10;;
62957;SDS011;49056;48.352;10.926;2024-02-21T16:10:34;0.05;;;0.00;;
62957;SDS011;49056;48.352;10.926;2024-02-21T16:15:54;0.20;;;0.10;;
62957;SDS011;49056;48.352;10.926;2024-02-21T16:21:15;0.40;;;0.10;;
62957;SDS011;49056;48.352;10.926;2024-02-21T16:26:36;0.55;;;0.20;;
62957;SDS011;49056;48.352;10.926;2024-02-21T16:31:56;0.17;;;0.10;;
62957;SDS011;49056;48.352;10.926;2024-02-21T16:37:16;0.10;;;0.10;;
62957;SDS011;49056;48.352;10.926;2024-02-21T16:42:37;0.28;;;0.10;;
62957;SDS011;49056;48.352;10.926;2024-02-21T16:47:57;0.80;;;0.20;;
62957;SDS011;49056;48.352;10.926;2024-02-21T16:53:17;0.37;;;0.13;;
62957;SDS011;49056;48.352;10.926;2024-02-21T16:58:38;0.47;;;0.28;;
62957;SDS011;49056;48.352;10.926;2024-02-21T17:03:58;0.00;;;0.00;;
62957;SDS011;49056;48.352;10.926;2024-02-21T17:09:18;0.22;;;0.20;;
62957;SDS011;49056;48.352;10.926;2024-02-21T17:14:39;0.20;;;0.10;;
62957;SDS011;49056;48.352;10.926;2024-02-21T17:19:59;1.00;;;0.30;;
62957;SDS011;49056;48.352;10.926;2024-02-21T17:25:20;0.00;;;0.00;;
62957;SDS011;49056;48.352;10.926;2024-02-21T17:30:40;0.17;;;0.10;;
62957;SDS011;49056;48.352;10.926;2024-02-21T17:36:00;0.20;;;0.13;;
62957;SDS011;49056;48.352;10.926;2024-02-21T17:41:21;1.02;;;0.30;;
62957;SDS011;49056;48.352;10.926;2024-02-21T17:46:41;0.57;;;0.30;;
62957;SDS011;49056;48.352;10.926;2024-02-21T17:52:02;0.32;;;0.20;;
62957;SDS011;49056;48.352;10.926;2024-02-21T17:57:24;0.22;;;0.20;;
62957;SDS011;49056;48.352;10.926;2024-02-21T18:02:45;0.20;;;0.03;;
62957;SDS011;49056;48.352;10.926;2024-02-21T18:08:05;0.50;;;0.17;;
62957;SDS011;49056;48.352;10.926;2024-02-21T18:13:26;0.60;;;0.20;;
62957;SDS011;49056;48.352;10.926;2024-02-21T18:18:47;0.75;;;0.30;;
62957;SDS011;49056;48.352;10.926;2024-02-21T18:24:07;0.40;;;0.37;;
62957;SDS011;49056;48.352;10.926;2024-02-21T18:29:27;0.32;;;0.30;;
62957;SDS011;49056;48.352;10.926;2024-02-21T18:34:47;0.30;;;0.30;;
62957;SDS011;49056;48.352;10.926;2024-02-21T18:40:08;0.62;;;0.30;;
62957;SDS011;49056;48.352;10.926;2024-02-21T18:45:31;0.20;;;0.20;;
62957;SDS011;49056;48.352;10.926;2024-02-21T18:50:51;0.77;;;0.30;;
62957;SDS011;49056;48.352;10.926;2024-02-21T18:56:12;0.95;;;0.35;;
62957;SDS011;49056;48.352;10.926;2024-02-21T19:01:32;0.70;;;0.20;;
62957;SDS011;49056;48.352;10.926;2024-02-21T19:06:52;0.50;;;0.43;;
62957;SDS011;49056;48.352;10.926;2024-02-21T19:12:14;0.80;;;0.13;;
62957;SDS011;49056;48.352;10.926;2024-02-21T19:17:34;0.80;;;0.28;;
62957;SDS011;49056;48.352;10.926;2024-02-21T19:22:54;1.27;;;0.30;;
62957;SDS011;49056;48.352;10.926;2024-02-21T19:28:15;0.40;;;0.20;;
62957;SDS011;49056;48.352;10.926;2024-02-21T19:33:35;0.80;;;0.30;;
62957;SDS011;49056;48.352;10.926;2024-02-21T19:38:56;0.52;;;0.32;;
62957;SDS011;49056;48.352;10.926;2024-02-21T19:44:17;0.52;;;0.20;;
62957;SDS011;49056;48.352;10.926;2024-02-21T19:49:41;0.57;;;0.28;;
62957;SDS011;49056;48.352;10.926;2024-02-21T19:55:02;0.52;;;0.37;;
62957;SDS011;49056;48.352;10.926;2024-02-21T20:00:22;0.93;;;0.40;;
62957;SDS011;49056;48.352;10.926;2024-02-21T20:05:42;1.00;;;0.30;;
62957;SDS011;49056;48.352;10.926;2024-02-21T20:11:03;1.15;;;0.60;;
62957;SDS011;49056;48.352;10.926;2024-02-21T20:16:25;0.52;;;0.20;;
62957;SDS011;49056;48.352;10.926;2024-02-21T20:21:45;1.27;;;0.40;;
62957;SDS011;49056;48.352;10.926;2024-02-21T20:27:07;1.15;;;0.50;;
62957;SDS011;49056;48.352;10.926;2024-02-21T20:32:27;0.40;;;0.30;;
62957;SDS011;49056;48.352;10.926;2024-02-21T20:37:47;0.60;;;0.33;;
62957;SDS011;49056;48.352;10.926;2024-02-21T20:43:08;0.53;;;0.30;;
62957;SDS011;49056;48.352;10.926;2024-02-21T20:48:28;1.13;;;0.57;;
62957;SDS011;49056;48.352;10.926;2024-02-21T20:53:51;1.73;;;0.52;;
62957;SDS011;49056;48.352;10.926;2024-02-21T20:59:12;1.00;;;0.73;;
62957;SDS011;49056;48.352;10.926;2024-02-21T21:04:34;0.50;;;0.40;;
62957;SDS011;49056;48.352;10.926;2024-02-21T21:09:54;1.20;;;0.40;;
62957;SDS011;49056;48.352;10.926;2024-02-21T21:15:16;0.77;;;0.45;;
62957;SDS011;49056;48.352;10.926;2024-02-21T21:20:36;2.03;;;0.77;;
62957;SDS011;49056;48.352;10.926;2024-02-21T21:25:57;0.97;;;0.40;;
62957;SDS011;49056;48.352;10.926;2024-02-21T21:31:17;0.53;;;0.30;;
62957;SDS011;49056;48.352;10.926;2024-02-21T21:36:39;0.28;;;0.28;;
62957;SDS011;49056;48.352;10.926;2024-02-21T21:41:59;0.45;;;0.20;;
62957;SDS011;49056;48.352;10.926;2024-02-21T21:47:20;1.75;;;0.40;;
62957;SDS011;49056;48.352;10.926;2024-02-21T21:52:40;0.60;;;0.43;;
62957;SDS011;49056;48.352;10.926;2024-02-21T21:58:00;0.77;;;0.30;;
62957;SDS011;49056;48.352;10.926;2024-02-21T22:03:20;1.25;;;0.50;;
62957;SDS011;49056;48.352;10.926;2024-02-21T22:08:41;0.80;;;0.37;;
62957;SDS011;49056;48.352;10.926;2024-02-21T22:14:01;0.90;;;0.60;;
62957;SDS011;49056;48.352;10.926;2024-02-21T22:19:21;0.87;;;0.50;;
62957;SDS011;49056;48.352;10.926;2024-02-21T22:24:42;1.07;;;0.50;;
62957;SDS011;49056;48.352;10.926;2024-02-21T22:30:04;0.20;;;0.13;;
62957;SDS011;49056;48.352;10.926;2024-02-21T22:35:24;0.47;;;0.35;;
62957;SDS011;49056;48.352;10.926;2024-02-21T22:40:45;0.85;;;0.32;;
62957;SDS011;49056;48.352;10.926;2024-02-21T22:46:05;0.30;;;0.30;;
62957;SDS011;49056;48.352;10.926;2024-02-21T22:51:25;0.63;;;0.47;;
62957;SDS011;49056;48.352;10.926;2024-02-21T22:56:46;0.62;;;0.40;;
62957;SDS011;49056;48.352;10.926;2024-02-21T23:02:06;0.73;;;0.50;;
62957;SDS011;49056;48.352;10.926;2024-02-21T23:07:27;0.40;;;0.25;;
62957;SDS011;49056;48.352;10.926;2024-02-21T23:12:48;1.27;;;0.60;;
62957;SDS011;49056;48.352;10.926;2024-02-21T23:18:08;0.75;;;0.47;;
62957;SDS011;49056;48.352;10.926;2024-02-21T23:23:28;0.65;;;0.32;;
62957;SDS011;49056;48.352;10.926;2024-02-21T23:28:48;1.25;;;0.30;;
62957;SDS011;49056;48.352;10.926;2024-02-21T23:34:09;0.73;;;0.33;;
62957;SDS011;49056;48.352;10.926;2024-02-21T23:39:29;0.82;;;0.45;;
62957;SDS011;49056;48.352;10.926;2024-02-21T23:44:50;1.02;;;0.65;;
62957;SDS011;49056;48.352;10.926;2024-02-21T23:50:11;1.37;;;0.50;;
62957;SDS011;49056;48.352;10.926;2024-02-21T23:55:31;0.20;;;0.20;;
